createdAt,value
2023-04-20T00:01:17.736Z,9.30
2023-04-20T00:03:44.994Z,9.30
2023-04-20T00:06:12.945Z,9.40
2023-04-20T00:08:40.420Z,9.40
2023-04-20T00:11:07.796Z,9.40
2023-04-20T00:13:35.681Z,9.40
2023-04-20T00:16:03.446Z,9.30
2023-04-20T00:18:30.477Z,9.30
2023-04-20T00:20:57.718Z,9.30
2023-04-20T00:23:24.905Z,9.30
2023-04-20T00:25:52.522Z,9.30
2023-04-20T00:28:19.560Z,9.30
2023-04-20T00:30:46.801Z,9.30
2023-04-20T00:33:14.000Z,9.30
2023-04-20T00:35:41.273Z,9.40
2023-04-20T00:38:08.552Z,9.40
2023-04-20T00:40:36.166Z,9.40
2023-04-20T00:43:10.157Z,9.40
2023-04-20T00:45:37.912Z,9.40
2023-04-20T00:48:05.733Z,9.40
2023-04-20T00:50:34.289Z,9.40
2023-04-20T00:53:02.501Z,9.40
2023-04-20T00:55:30.799Z,9.40
2023-04-20T00:57:59.241Z,9.40
2023-04-20T01:00:27.949Z,9.40
2023-04-20T01:02:55.091Z,9.40
2023-04-20T01:05:22.511Z,9.30
2023-04-20T01:07:50.545Z,9.30
2023-04-20T01:10:18.039Z,9.30
2023-04-20T01:12:45.977Z,9.30
2023-04-20T01:15:13.219Z,9.30
2023-04-20T01:17:43.187Z,9.30
2023-04-20T01:20:15.151Z,9.30
2023-04-20T01:22:46.654Z,9.30
2023-04-20T01:25:14.133Z,9.30
2023-04-20T01:27:41.234Z,9.40
2023-04-20T01:30:08.882Z,9.40
2023-04-20T01:32:36.075Z,9.30
2023-04-20T01:35:03.934Z,9.30
2023-04-20T01:37:30.991Z,9.30
2023-04-20T01:39:58.566Z,9.30
2023-04-20T01:42:26.097Z,9.30
2023-04-20T01:44:53.918Z,9.30
2023-04-20T01:47:21.064Z,9.30
2023-04-20T01:49:48.529Z,9.30
2023-04-20T01:52:16.004Z,9.30
2023-04-20T01:54:43.294Z,9.30
2023-04-20T01:57:10.599Z,9.30
2023-04-20T01:59:38.062Z,9.30
2023-04-20T02:02:05.307Z,9.30
2023-04-20T02:04:32.804Z,9.30
2023-04-20T02:06:59.928Z,9.30
2023-04-20T02:09:27.104Z,9.30
2023-04-20T02:11:54.947Z,9.20
2023-04-20T02:14:22.757Z,9.30
2023-04-20T02:16:50.460Z,9.20
2023-04-20T02:19:17.881Z,9.20
2023-04-20T02:21:45.111Z,9.20
2023-04-20T02:24:12.170Z,9.20
2023-04-20T02:26:39.243Z,9.20
2023-04-20T02:29:06.583Z,9.20
2023-04-20T02:31:34.703Z,9.10
2023-04-20T02:34:01.977Z,9.10
2023-04-20T02:36:30.487Z,9.10
2023-04-20T02:38:57.980Z,9.10
2023-04-20T02:41:25.136Z,9.20
2023-04-20T02:43:52.199Z,9.20
2023-04-20T02:46:19.344Z,9.20
2023-04-20T02:48:46.757Z,9.20
2023-04-20T02:51:14.259Z,9.20
2023-04-20T02:53:41.344Z,9.30
2023-04-20T02:56:08.474Z,9.30
2023-04-20T02:58:37.079Z,9.40
2023-04-20T03:01:04.576Z,9.40
2023-04-20T03:03:32.602Z,9.40
2023-04-20T03:06:00.501Z,9.40
2023-04-20T03:08:27.660Z,9.50
2023-04-20T03:10:55.545Z,9.50
2023-04-20T03:13:23.023Z,9.50
2023-04-20T03:15:51.002Z,9.50
2023-04-20T03:18:18.363Z,9.50
2023-04-20T03:20:45.720Z,9.50
2023-04-20T03:23:12.822Z,9.50
2023-04-20T03:25:39.885Z,9.50
2023-04-20T03:28:07.629Z,9.40
2023-04-20T03:30:34.833Z,9.40
2023-04-20T03:33:01.941Z,9.40
2023-04-20T03:35:28.991Z,9.40
2023-04-20T03:37:58.893Z,9.40
2023-04-20T03:40:26.085Z,9.40
2023-04-20T03:42:53.808Z,9.30
2023-04-20T03:45:21.323Z,9.30
2023-04-20T03:47:48.662Z,9.30
2023-04-20T03:50:15.720Z,9.30
2023-04-20T03:52:43.024Z,9.30
2023-04-20T03:55:10.342Z,9.30
2023-04-20T03:57:40.761Z,9.30
2023-04-20T04:00:08.266Z,9.30
2023-04-20T04:02:38.034Z,9.30
2023-04-20T04:05:06.001Z,9.20
2023-04-20T04:07:33.331Z,9.20
2023-04-20T04:10:00.407Z,9.20
2023-04-20T04:12:27.710Z,9.20
2023-04-20T04:14:54.922Z,9.20
2023-04-20T04:17:21.960Z,9.20
2023-04-20T04:19:50.312Z,9.20
2023-04-20T04:22:17.441Z,9.20
2023-04-20T04:24:44.690Z,9.20
2023-04-20T04:27:14.398Z,9.20
2023-04-20T04:29:42.131Z,9.20
2023-04-20T04:32:10.639Z,9.20
2023-04-20T04:34:38.332Z,9.20
2023-04-20T04:37:05.679Z,9.20
2023-04-20T04:39:33.037Z,9.20
2023-04-20T04:42:00.815Z,9.20
2023-04-20T04:44:30.567Z,9.20
2023-04-20T04:46:57.874Z,9.20
2023-04-20T04:49:25.290Z,9.20
2023-04-20T04:51:52.720Z,9.20
2023-04-20T04:54:19.770Z,9.20
2023-04-20T04:56:46.888Z,9.20
2023-04-20T04:59:13.894Z,9.20
2023-04-20T05:01:41.242Z,9.10
2023-04-20T05:04:08.798Z,9.10
2023-04-20T05:06:36.887Z,9.10
2023-04-20T05:09:05.027Z,9.20
2023-04-20T05:11:33.373Z,9.20
2023-04-20T05:14:03.110Z,9.20
2023-04-20T05:16:30.289Z,9.20
2023-04-20T05:18:57.660Z,9.20
2023-04-20T05:21:25.206Z,9.20
2023-04-20T05:23:52.435Z,9.20
2023-04-20T05:26:19.872Z,9.20
2023-04-20T05:28:47.781Z,9.20
2023-04-20T05:31:14.867Z,9.20
2023-04-20T05:33:42.479Z,9.20
2023-04-20T05:36:10.699Z,9.20
2023-04-20T05:38:38.432Z,9.30
2023-04-20T05:41:05.915Z,9.30
2023-04-20T05:43:33.120Z,9.30
2023-04-20T05:46:00.295Z,9.30
2023-04-20T05:48:30.203Z,9.40
2023-04-20T05:50:59.062Z,9.40
2023-04-20T05:53:26.487Z,9.40
2023-04-20T05:55:53.556Z,9.40
2023-04-20T05:58:21.072Z,9.40
2023-04-20T06:00:49.809Z,9.40
2023-04-20T06:03:17.597Z,9.50
2023-04-20T06:05:45.053Z,9.50
2023-04-20T06:08:13.553Z,9.50
2023-04-20T06:10:40.789Z,9.50
2023-04-20T06:13:08.029Z,9.50
2023-04-20T06:15:35.120Z,9.40
2023-04-20T06:18:02.460Z,9.40
2023-04-20T06:20:29.557Z,9.30
2023-04-20T06:22:56.811Z,9.30
2023-04-20T06:25:25.977Z,9.30
2023-04-20T06:27:53.194Z,9.20
2023-04-20T06:30:20.504Z,9.30
2023-04-20T06:32:47.661Z,9.20
2023-04-20T06:35:15.007Z,9.20
2023-04-20T06:37:42.138Z,9.20
2023-04-20T06:40:09.726Z,9.20
2023-04-20T06:42:37.617Z,9.20
2023-04-20T06:45:06.389Z,9.20
2023-04-20T06:47:34.981Z,9.10
2023-04-20T06:50:03.105Z,9.10
2023-04-20T06:52:31.525Z,9.00
2023-04-20T06:54:58.820Z,9.00
2023-04-20T06:57:26.479Z,9.00
2023-04-20T06:59:53.538Z,8.90
2023-04-20T07:02:20.631Z,8.90
2023-04-20T07:04:48.619Z,8.90
2023-04-20T07:07:15.988Z,8.90
2023-04-20T07:09:43.597Z,9.00
2023-04-20T07:12:12.547Z,9.00
2023-04-20T07:14:39.815Z,9.00
2023-04-20T07:17:07.124Z,9.00
2023-04-20T07:19:34.451Z,9.10
2023-04-20T07:22:02.247Z,9.20
2023-04-20T07:24:30.128Z,9.20
2023-04-20T07:26:57.473Z,9.10
2023-04-20T07:29:24.726Z,9.10
2023-04-20T07:31:51.979Z,9.10
2023-04-20T07:34:19.282Z,9.10
2023-04-20T07:36:46.901Z,9.10
2023-04-20T07:39:14.642Z,9.10
2023-04-20T07:41:41.694Z,9.10
2023-04-20T07:44:08.778Z,9.20
2023-04-20T07:46:36.225Z,9.20
2023-04-20T07:49:03.372Z,9.20
2023-04-20T07:51:30.857Z,9.10
2023-04-20T07:53:58.322Z,9.20
2023-04-20T07:56:25.564Z,9.20
2023-04-20T07:58:52.601Z,9.20
2023-04-20T08:01:23.785Z,9.20
2023-04-20T08:03:51.266Z,9.20
2023-04-20T08:06:18.865Z,9.20
2023-04-20T08:08:46.398Z,9.20
2023-04-20T08:11:13.601Z,9.20
2023-04-20T08:13:41.766Z,9.20
2023-04-20T08:16:08.925Z,9.20
2023-04-20T08:18:36.033Z,9.20
2023-04-20T08:21:03.209Z,9.20
2023-04-20T08:23:30.161Z,9.20
2023-04-20T08:26:00.611Z,9.30
2023-04-20T08:28:33.380Z,9.30
2023-04-20T08:31:01.981Z,9.30
2023-04-20T08:33:29.108Z,9.30
2023-04-20T08:35:56.291Z,9.40
2023-04-20T08:38:33.686Z,9.40
2023-04-20T08:41:01.754Z,9.40
2023-04-20T08:43:29.221Z,9.40
2023-04-20T08:45:59.239Z,9.50
2023-04-20T08:48:28.233Z,9.50
2023-04-20T08:50:56.739Z,9.50
2023-04-20T08:53:23.964Z,9.60
2023-04-20T08:55:51.184Z,9.60
2023-04-20T08:58:19.606Z,9.60
2023-04-20T09:00:47.643Z,9.70
2023-04-20T09:03:15.011Z,9.70
2023-04-20T09:05:44.746Z,9.70
2023-04-20T09:08:12.244Z,9.70
2023-04-20T09:10:43.480Z,9.70
2023-04-20T09:13:21.975Z,9.80
2023-04-20T09:15:49.177Z,9.80
2023-04-20T09:18:17.300Z,9.80
2023-04-20T09:20:44.897Z,9.90
2023-04-20T09:23:19.273Z,9.90
2023-04-20T09:25:47.624Z,9.90
2023-04-20T09:28:14.707Z,10.00
2023-04-20T09:30:47.166Z,10.00
2023-04-20T09:33:15.015Z,10.10
2023-04-20T09:35:42.855Z,10.30
2023-04-20T09:38:11.794Z,10.50
2023-04-20T09:40:39.003Z,10.70
2023-04-20T09:43:19.595Z,10.90
2023-04-20T09:45:47.008Z,11.20
2023-04-20T09:48:19.649Z,11.50
2023-04-20T09:50:49.634Z,11.60
2023-04-20T09:53:18.340Z,11.90
2023-04-20T09:55:49.588Z,12.10
2023-04-20T09:58:21.381Z,12.20
2023-04-20T10:00:49.683Z,12.30
2023-04-20T10:03:18.739Z,12.40
2023-04-20T10:05:46.569Z,12.40
2023-04-20T10:08:13.896Z,12.30
2023-04-20T10:10:45.483Z,12.20
2023-04-20T10:13:12.926Z,12.20
2023-04-20T10:15:41.205Z,12.20
2023-04-20T10:18:18.853Z,12.20
2023-04-20T10:20:46.531Z,12.20
2023-04-20T10:23:16.933Z,12.10
2023-04-20T10:25:45.929Z,12.10
2023-04-20T10:28:13.664Z,12.10
2023-04-20T10:30:51.445Z,12.20
2023-04-20T10:33:18.689Z,12.30
2023-04-20T10:35:55.325Z,12.40
2023-04-20T10:38:31.134Z,12.50
2023-04-20T10:41:09.795Z,12.60
2023-04-20T10:43:39.265Z,12.70
2023-04-20T10:46:22.880Z,12.60
2023-04-20T10:48:57.029Z,12.60
2023-04-20T10:51:24.563Z,12.60
2023-04-20T10:54:01.669Z,12.90
2023-04-20T10:56:29.170Z,13.30
2023-04-20T10:59:07.085Z,13.60
2023-04-20T11:01:34.187Z,13.80
2023-04-20T11:04:01.603Z,14.00
2023-04-20T11:06:28.938Z,14.20
2023-04-20T11:08:56.591Z,14.40
2023-04-20T11:11:25.719Z,14.50
2023-04-20T11:13:53.654Z,14.60
2023-04-20T11:16:20.804Z,14.80
2023-04-20T11:18:54.294Z,14.90
2023-04-20T11:21:23.473Z,15.00
2023-04-20T11:23:50.820Z,15.10
2023-04-20T11:26:18.379Z,15.30
2023-04-20T11:28:55.171Z,15.50
2023-04-20T11:31:23.672Z,15.70
2023-04-20T11:33:51.657Z,15.90
2023-04-20T11:36:22.726Z,16.00
2023-04-20T11:38:50.083Z,16.00
2023-04-20T11:41:17.582Z,16.00
2023-04-20T11:43:46.084Z,16.10
2023-04-20T11:46:15.052Z,16.20
2023-04-20T11:48:42.164Z,16.40
2023-04-20T11:51:09.521Z,16.30
2023-04-20T11:53:37.707Z,16.20
2023-04-20T11:56:05.796Z,16.10
2023-04-20T11:58:32.814Z,16.10
2023-04-20T12:01:01.224Z,16.10
2023-04-20T12:03:28.767Z,16.00
2023-04-20T12:05:56.408Z,15.90
2023-04-20T12:08:24.942Z,16.00
2023-04-20T12:10:52.035Z,16.20
2023-04-20T12:13:19.004Z,16.40
2023-04-20T12:15:46.192Z,16.60
2023-04-20T12:18:13.330Z,16.70
2023-04-20T12:20:40.558Z,16.80
2023-04-20T12:23:08.835Z,16.80
2023-04-20T12:25:35.858Z,16.80
2023-04-20T12:28:07.196Z,16.70
2023-04-20T12:30:37.500Z,16.80
2023-04-20T12:33:04.793Z,16.80
2023-04-20T12:35:31.948Z,16.80
2023-04-20T12:37:59.838Z,16.80
2023-04-20T12:40:27.622Z,16.80
2023-04-20T12:42:55.182Z,16.80
2023-04-20T12:45:22.440Z,16.90
2023-04-20T12:47:50.657Z,17.00
2023-04-20T12:50:19.219Z,17.00
2023-04-20T12:52:46.378Z,17.10
2023-04-20T12:55:14.818Z,17.20
2023-04-20T12:57:41.985Z,17.10
2023-04-20T13:00:10.592Z,17.10
2023-04-20T13:02:39.386Z,17.10
2023-04-20T13:05:07.395Z,17.20
2023-04-20T13:07:34.401Z,17.30
2023-04-20T13:10:01.472Z,17.40
2023-04-20T13:12:28.539Z,17.50
2023-04-20T13:14:55.790Z,17.60
2023-04-20T13:17:22.857Z,17.70
2023-04-20T13:19:50.572Z,17.70
2023-04-20T13:22:19.060Z,17.80
2023-04-20T13:24:46.395Z,17.90
2023-04-20T13:27:14.924Z,18.00
2023-04-20T13:29:42.390Z,18.10
2023-04-20T13:32:10.502Z,18.10
2023-04-20T13:34:37.927Z,18.20
2023-04-20T13:37:05.941Z,18.20
2023-04-20T13:39:33.200Z,18.20
2023-04-20T13:42:00.338Z,18.20
2023-04-20T13:44:27.451Z,18.10
2023-04-20T13:46:54.718Z,18.00
2023-04-20T13:49:23.103Z,17.90
2023-04-20T13:51:50.679Z,17.80
2023-04-20T13:54:18.475Z,17.70
2023-04-20T13:56:46.274Z,17.70
2023-04-20T13:59:13.536Z,17.70
2023-04-20T14:01:41.503Z,17.60
2023-04-20T14:04:10.286Z,17.60
2023-04-20T14:06:38.685Z,17.50
2023-04-20T14:09:05.957Z,17.50
2023-04-20T14:11:33.258Z,17.40
2023-04-20T14:14:00.305Z,17.40
2023-04-20T14:16:27.720Z,17.40
2023-04-20T14:18:55.478Z,17.50
2023-04-20T14:21:24.214Z,17.50
2023-04-20T14:23:53.743Z,17.40
2023-04-20T14:26:21.149Z,17.40
2023-04-20T14:28:48.762Z,17.30
2023-04-20T14:31:17.071Z,17.30
2023-04-20T14:33:45.064Z,17.30
2023-04-20T14:36:12.239Z,17.30
2023-04-20T14:38:39.638Z,17.30
2023-04-20T14:41:08.109Z,17.30
2023-04-20T14:43:35.926Z,17.20
2023-04-20T14:46:08.888Z,17.10
2023-04-20T14:48:39.448Z,17.00
2023-04-20T14:51:07.070Z,16.90
2023-04-20T14:53:34.814Z,16.90
2023-04-20T14:56:02.105Z,16.90
2023-04-20T14:58:31.269Z,16.80
2023-04-20T15:00:58.488Z,16.70
2023-04-20T15:03:25.520Z,16.70
2023-04-20T15:05:53.366Z,16.60
2023-04-20T15:08:20.524Z,16.60
2023-04-20T15:10:47.970Z,16.50
2023-04-20T15:13:15.248Z,16.50
2023-04-20T15:18:14.564Z,16.50
2023-04-20T15:20:41.852Z,16.50
2023-04-20T15:23:09.281Z,16.50
2023-04-20T15:25:36.330Z,16.50
2023-04-20T15:28:03.582Z,16.50
2023-04-20T15:30:31.212Z,16.50
2023-04-20T15:33:05.246Z,16.50
2023-04-20T15:35:33.230Z,16.50
2023-04-20T15:38:01.483Z,16.50
2023-04-20T15:40:28.847Z,16.50
2023-04-20T15:42:56.431Z,16.50
2023-04-20T15:45:23.670Z,16.40
2023-04-20T15:47:51.645Z,16.30
2023-04-20T15:50:19.115Z,16.30
2023-04-20T15:52:49.952Z,16.30
2023-04-20T15:55:17.891Z,16.20
2023-04-20T15:57:45.401Z,16.20
2023-04-20T16:00:12.978Z,16.10
2023-04-20T16:02:40.473Z,16.10
2023-04-20T16:05:08.324Z,16.10
2023-04-20T16:07:35.970Z,16.10
2023-04-20T16:10:03.808Z,16.00
2023-04-20T16:12:30.848Z,16.00
2023-04-20T16:14:58.153Z,15.90
2023-04-20T16:17:25.651Z,15.90
2023-04-20T16:19:52.648Z,15.90
2023-04-20T16:22:19.830Z,15.80
2023-04-20T16:24:48.384Z,15.80
2023-04-20T16:27:15.452Z,15.70
2023-04-20T16:29:44.703Z,15.70
2023-04-20T16:32:12.610Z,15.70
2023-04-20T16:34:40.123Z,15.70
2023-04-20T16:37:07.230Z,15.60
2023-04-20T16:39:34.497Z,15.60
2023-04-20T16:42:02.039Z,15.60
2023-04-20T16:44:29.189Z,15.60
2023-04-20T16:46:56.607Z,15.50
2023-04-20T16:49:23.870Z,15.50
2023-04-20T16:51:51.822Z,15.40
2023-04-20T16:54:19.311Z,15.40
2023-04-20T16:56:46.508Z,15.40
2023-04-20T16:59:14.036Z,15.30
2023-04-20T17:01:41.267Z,15.30
2023-04-20T17:04:08.588Z,15.20
2023-04-20T17:06:36.005Z,15.20
2023-04-20T17:09:07.384Z,15.20
2023-04-20T17:11:38.996Z,15.10
2023-04-20T17:14:06.702Z,15.10
2023-04-20T17:16:34.106Z,15.10
2023-04-20T17:19:03.343Z,15.00
2023-04-20T17:21:30.983Z,15.00
2023-04-20T17:23:59.766Z,15.00
2023-04-20T17:26:26.870Z,15.00
2023-04-20T17:28:54.067Z,15.00
2023-04-20T17:31:21.470Z,14.90
2023-04-20T17:33:48.827Z,14.90
2023-04-20T17:36:16.131Z,14.80
2023-04-20T17:38:43.451Z,14.80
2023-04-20T17:41:10.700Z,14.80
2023-04-20T17:43:40.658Z,14.70
2023-04-20T17:46:08.517Z,14.70
2023-04-20T17:48:35.786Z,14.70
2023-04-20T17:51:02.864Z,14.60
2023-04-20T17:53:30.320Z,14.60
2023-04-20T17:55:57.439Z,14.60
2023-04-20T17:58:25.203Z,14.50
2023-04-20T18:00:52.438Z,14.50
2023-04-20T18:03:20.311Z,14.50
2023-04-20T18:05:47.786Z,14.50
2023-04-20T18:08:15.766Z,14.50
2023-04-20T18:10:42.894Z,14.40
2023-04-20T18:13:10.369Z,14.40
2023-04-20T18:15:38.445Z,14.40
2023-04-20T18:18:05.763Z,14.30
2023-04-20T18:20:33.021Z,14.30
2023-04-20T18:22:59.994Z,14.30
2023-04-20T18:25:27.744Z,14.30
2023-04-20T18:27:56.114Z,14.30
2023-04-20T18:30:23.219Z,14.20
2023-04-20T18:32:50.322Z,14.20
2023-04-20T18:35:19.929Z,14.20
2023-04-20T18:37:46.920Z,14.20
2023-04-20T18:40:16.077Z,14.10
2023-04-20T18:42:43.611Z,14.10
2023-04-20T18:45:12.664Z,14.10
2023-04-20T18:47:39.909Z,14.10
2023-04-20T18:50:07.053Z,14.00
2023-04-20T18:52:34.829Z,14.00
2023-04-20T18:55:02.683Z,14.00
2023-04-20T18:57:30.220Z,14.00
2023-04-20T18:59:58.145Z,14.00
2023-04-20T19:02:25.762Z,14.00
2023-04-20T19:04:53.122Z,13.90
2023-04-20T19:07:20.937Z,13.90
2023-04-20T19:09:49.632Z,13.90
2023-04-20T19:12:17.161Z,13.90
2023-04-20T19:14:44.180Z,13.80
2023-04-20T19:17:11.380Z,13.80
2023-04-20T19:19:38.838Z,13.80
2023-04-20T19:22:06.306Z,13.70
2023-04-20T19:24:33.866Z,13.70
2023-04-20T19:27:01.435Z,13.60
2023-04-20T19:29:29.020Z,13.60
2023-04-20T19:31:56.227Z,13.60
2023-04-20T19:34:23.327Z,13.60
2023-04-20T19:36:50.426Z,13.60
2023-04-20T19:39:17.730Z,13.60
2023-04-20T19:41:44.697Z,13.60
2023-04-20T19:44:12.773Z,13.60
2023-04-20T19:46:40.852Z,13.50
2023-04-20T19:49:08.079Z,13.50
2023-04-20T19:51:35.229Z,13.50
2023-04-20T19:54:03.834Z,13.50
2023-04-20T19:56:31.515Z,13.40
2023-04-20T19:58:58.574Z,13.50
2023-04-20T20:01:25.732Z,13.40
2023-04-20T20:03:53.184Z,13.40
2023-04-20T20:06:22.189Z,13.40
2023-04-20T20:08:49.538Z,13.30
2023-04-20T20:11:16.571Z,13.30
2023-04-20T20:13:43.612Z,13.30
2023-04-20T20:16:10.796Z,13.20
2023-04-20T20:18:40.932Z,13.20
2023-04-20T20:21:08.102Z,13.20
2023-04-20T20:23:35.344Z,13.20
2023-04-20T20:26:03.602Z,13.20
2023-04-20T20:28:30.848Z,13.20
2023-04-20T20:30:58.160Z,13.10
2023-04-20T20:33:26.253Z,13.10
2023-04-20T20:35:53.292Z,13.10
2023-04-20T20:38:21.294Z,13.10
2023-04-20T20:40:50.811Z,13.10
2023-04-20T20:43:19.192Z,13.10
2023-04-20T20:45:47.977Z,13.10
2023-04-20T20:48:15.172Z,13.00
2023-04-20T20:50:42.381Z,13.00
2023-04-20T20:53:10.806Z,13.00
2023-04-20T20:55:38.498Z,13.00
2023-04-20T20:58:06.590Z,13.00
2023-04-20T21:00:34.691Z,13.00
2023-04-20T21:03:03.362Z,13.00
2023-04-20T21:05:30.918Z,12.90
2023-04-20T21:07:58.806Z,13.00
2023-04-20T21:10:29.068Z,12.90
2023-04-20T21:12:56.382Z,12.90
2023-04-20T21:15:23.357Z,12.90
2023-04-20T21:17:50.900Z,12.90
2023-04-20T21:20:18.719Z,12.80
2023-04-20T21:22:45.703Z,12.80
2023-04-20T21:25:13.252Z,12.80
2023-04-20T21:27:40.605Z,12.80
2023-04-20T21:30:08.164Z,12.80
2023-04-20T21:32:35.396Z,12.80
2023-04-20T21:35:02.436Z,12.70
2023-04-20T21:37:29.448Z,12.70
2023-04-20T21:39:56.594Z,12.80
2023-04-20T21:42:23.688Z,12.70
2023-04-20T21:44:51.000Z,12.70
2023-04-20T21:47:18.186Z,12.70
2023-04-20T21:49:46.481Z,12.70
2023-04-20T21:52:13.526Z,12.70
2023-04-20T21:54:42.359Z,12.70
2023-04-20T21:57:09.650Z,12.70
2023-04-20T21:59:36.659Z,12.70
2023-04-20T22:02:04.897Z,12.70
2023-04-20T22:04:32.867Z,12.70
2023-04-20T22:07:01.364Z,12.60
2023-04-20T22:09:28.555Z,12.60
2023-04-20T22:11:56.044Z,12.60
2023-04-20T22:14:24.740Z,12.60
2023-04-20T22:16:52.850Z,12.60
2023-04-20T22:19:20.190Z,12.60
2023-04-20T22:21:47.548Z,12.60
2023-04-20T22:24:14.784Z,12.60
2023-04-20T22:26:42.504Z,12.60
2023-04-20T22:29:10.043Z,12.60
2023-04-20T22:31:37.481Z,12.50
2023-04-20T22:34:04.951Z,12.50
2023-04-20T22:36:33.068Z,12.50
2023-04-20T22:39:00.310Z,12.50
2023-04-20T22:41:27.593Z,12.50
2023-04-20T22:43:54.791Z,12.40
2023-04-20T22:46:22.092Z,12.40
2023-04-20T22:48:49.538Z,12.50
2023-04-20T22:51:17.578Z,12.40
2023-04-20T22:53:45.107Z,12.40
2023-04-20T22:56:12.260Z,12.40
2023-04-20T22:58:39.468Z,12.40
2023-04-20T23:01:07.157Z,12.40
2023-04-20T23:03:34.957Z,12.40
2023-04-20T23:06:02.425Z,12.40
2023-04-20T23:08:29.778Z,12.50
2023-04-20T23:10:57.260Z,12.40
2023-04-20T23:13:26.659Z,12.40
2023-04-20T23:15:54.390Z,12.40
2023-04-20T23:18:21.956Z,12.40
2023-04-20T23:20:49.672Z,12.40
2023-04-20T23:23:16.872Z,12.40
2023-04-20T23:25:43.875Z,12.30
2023-04-20T23:28:11.158Z,12.40
2023-04-20T23:30:38.421Z,12.40
2023-04-20T23:33:05.944Z,12.30
2023-04-20T23:35:33.625Z,12.30
2023-04-20T23:38:01.494Z,12.30
2023-04-20T23:40:28.951Z,12.30
2023-04-20T23:42:56.116Z,12.20
2023-04-20T23:45:23.920Z,12.20
2023-04-20T23:47:51.460Z,12.20
2023-04-20T23:50:18.427Z,12.20
2023-04-20T23:52:46.131Z,12.20
2023-04-20T23:55:14.329Z,12.20
2023-04-20T23:57:41.806Z,12.20
